createdAt,value
2018-09-28T00:02:05.105Z,7.97
2018-09-28T00:04:35.838Z,9.60
2018-09-28T00:07:07.048Z,5.70
2018-09-28T00:09:37.520Z,7.30
2018-09-28T00:12:07.573Z,5.83
2018-09-28T00:14:38.329Z,7.47
2018-09-28T00:17:09.511Z,6.20
2018-09-28T00:22:46.336Z,6.07
2018-09-28T00:25:17.454Z,6.83
2018-09-28T00:27:54.610Z,5.83
2018-09-28T00:30:27.529Z,6.97
2018-09-28T00:33:00.088Z,6.00
2018-09-28T00:35:30.499Z,6.30
2018-09-28T00:38:04.068Z,9.53
2018-09-28T00:40:37.996Z,7.17
2018-09-28T00:43:08.307Z,5.93
2018-09-28T00:45:37.786Z,6.37
2018-09-28T00:48:07.776Z,8.50
2018-09-28T00:50:37.718Z,7.20
2018-09-28T00:53:07.172Z,4.80
2018-09-28T00:55:36.836Z,7.10
2018-09-28T00:58:08.010Z,5.63
2018-09-28T01:00:37.591Z,5.17
2018-09-28T01:03:07.099Z,7.30
2018-09-28T01:05:36.938Z,5.73
2018-09-28T01:08:07.709Z,7.53
2018-09-28T01:10:37.246Z,5.60
2018-09-28T01:13:06.713Z,6.53
2018-09-28T01:15:36.173Z,8.93
2018-09-28T01:18:24.952Z,5.97
2018-09-28T01:20:54.378Z,6.50
2018-09-28T01:23:23.794Z,7.33
2018-09-28T01:25:53.309Z,6.77
2018-09-28T01:28:23.001Z,7.23
2018-09-28T01:30:52.499Z,6.13
2018-09-28T01:33:21.905Z,4.97
2018-09-28T01:35:51.338Z,5.57
2018-09-28T01:38:20.746Z,8.93
2018-09-28T01:40:50.655Z,5.67
2018-09-28T01:43:21.487Z,5.57
2018-09-28T01:45:50.898Z,6.50
2018-09-28T01:48:20.396Z,6.83
2018-09-28T01:50:49.803Z,8.37
2018-09-28T01:53:20.548Z,6.97
2018-09-28T01:55:50.029Z,5.77
2018-09-28T01:58:19.488Z,6.77
2018-09-28T02:00:48.975Z,7.23
2018-09-28T02:03:18.661Z,7.07
2018-09-28T02:05:48.102Z,6.07
2018-09-28T02:08:17.869Z,7.43
2018-09-28T02:10:47.271Z,7.37
2018-09-28T02:13:16.672Z,6.13
2018-09-28T02:15:46.215Z,6.27
2018-09-28T02:18:22.321Z,6.30
2018-09-28T02:20:51.846Z,9.33
2018-09-28T02:23:21.500Z,7.00
2018-09-28T02:25:50.977Z,8.23
2018-09-28T02:28:20.743Z,6.97
2018-09-28T02:30:50.305Z,6.20
2018-09-28T02:33:21.475Z,8.80
2018-09-28T02:35:51.198Z,7.23
2018-09-28T02:38:21.043Z,5.03
2018-09-28T02:40:50.523Z,6.17
2018-09-28T02:43:20.720Z,7.77
2018-09-28T02:45:50.298Z,7.87
2018-09-28T02:48:19.983Z,5.53
2018-09-28T02:50:49.472Z,6.93
2018-09-28T02:53:19.833Z,6.00
2018-09-28T02:55:50.149Z,5.83
2018-09-28T02:58:19.976Z,6.57
2018-09-28T03:00:49.563Z,6.00
2018-09-28T03:03:19.162Z,6.97
2018-09-28T03:05:48.689Z,5.90
2018-09-28T03:08:18.279Z,6.23
2018-09-28T03:10:48.302Z,8.00
2018-09-28T03:13:18.254Z,9.20
2018-09-28T03:15:47.738Z,6.60
2018-09-28T03:18:17.437Z,12.47
2018-09-28T03:20:47.207Z,6.73
2018-09-28T03:23:17.054Z,6.97
2018-09-28T03:25:46.571Z,8.07
2018-09-28T03:28:16.170Z,8.37
2018-09-28T03:30:52.666Z,6.37
2018-09-28T03:33:22.867Z,7.67
2018-09-28T03:35:53.798Z,5.77
2018-09-28T03:38:23.700Z,7.60
2018-09-28T03:40:53.190Z,5.57
2018-09-28T03:43:22.855Z,6.63
2018-09-28T03:45:52.296Z,5.90
2018-09-28T03:48:22.004Z,7.57
2018-09-28T03:50:53.855Z,6.57
2018-09-28T03:53:23.817Z,7.93
2018-09-28T03:55:53.529Z,6.40
2018-09-28T03:58:23.296Z,9.20
2018-09-28T04:00:52.711Z,6.20
2018-09-28T04:03:22.513Z,5.37
2018-09-28T04:05:57.889Z,6.33
2018-09-28T04:08:27.424Z,8.10
2018-09-28T04:10:56.848Z,5.97
2018-09-28T04:13:26.326Z,7.67
2018-09-28T04:15:55.757Z,9.17
2018-09-28T04:18:25.118Z,5.77
2018-09-28T04:20:54.694Z,6.67
2018-09-28T04:23:25.756Z,6.63
2018-09-28T04:26:23.063Z,7.33
2018-09-28T04:28:52.840Z,10.77
2018-09-28T04:31:23.908Z,5.33
2018-09-28T04:33:54.501Z,7.50
2018-09-28T04:36:24.513Z,5.83
2018-09-28T04:38:54.099Z,9.43
2018-09-28T04:41:25.885Z,6.37
2018-09-28T04:43:56.531Z,10.63
2018-09-28T04:46:26.298Z,8.30
2018-09-28T04:48:58.463Z,6.50
2018-09-28T04:51:27.918Z,10.00
2018-09-28T04:53:57.795Z,7.63
2018-09-28T04:56:41.955Z,13.13
2018-09-28T04:59:11.563Z,6.60
2018-09-28T05:01:41.159Z,9.23
2018-09-28T05:04:11.053Z,7.33
2018-09-28T05:06:40.806Z,6.67
2018-09-28T05:09:12.466Z,7.80
2018-09-28T05:11:42.327Z,8.33
2018-09-28T05:14:11.885Z,7.97
2018-09-28T05:16:43.884Z,7.50
2018-09-28T05:19:13.624Z,9.10
2018-09-28T05:21:43.803Z,8.03
2018-09-28T05:24:13.375Z,8.77
2018-09-28T05:26:43.769Z,6.77
2018-09-28T05:29:13.461Z,10.60
2018-09-28T05:31:43.666Z,13.07
2018-09-28T05:34:13.457Z,7.73
2018-09-28T05:36:43.983Z,8.70
2018-09-28T05:39:14.309Z,8.37
2018-09-28T05:41:44.012Z,6.83
2018-09-28T05:44:13.888Z,8.33
2018-09-28T05:46:43.535Z,7.53
2018-09-28T05:49:13.136Z,7.70
2018-09-28T05:51:42.665Z,9.07
2018-09-28T05:54:13.594Z,8.27
2018-09-28T05:56:43.186Z,11.70
2018-09-28T05:59:17.687Z,7.27
2018-09-28T06:01:58.083Z,9.83
2018-09-28T06:04:33.488Z,9.50
2018-09-28T06:07:03.326Z,7.60
2018-09-28T06:09:32.863Z,7.40
2018-09-28T06:12:03.173Z,11.40
2018-09-28T06:14:32.770Z,9.83
2018-09-28T06:17:02.422Z,11.13
2018-09-28T06:19:32.020Z,9.87
2018-09-28T06:22:02.445Z,8.67
2018-09-28T06:24:32.014Z,7.23
2018-09-28T06:27:02.980Z,10.17
2018-09-28T06:29:32.461Z,8.63
2018-09-28T06:32:02.113Z,10.30
2018-09-28T06:34:31.704Z,9.03
2018-09-28T06:37:01.367Z,10.33
2018-09-28T06:39:31.007Z,10.43
2018-09-28T06:42:04.672Z,9.07
2018-09-28T06:44:34.162Z,7.87
2018-09-28T06:47:03.694Z,9.83
2018-09-28T06:49:33.213Z,8.67
2018-09-28T06:52:02.787Z,6.37
2018-09-28T06:54:32.605Z,9.83
2018-09-28T06:57:02.415Z,7.90
2018-09-28T06:59:31.948Z,7.73
2018-09-28T07:02:01.541Z,8.53
2018-09-28T07:04:31.038Z,13.40
2018-09-28T07:07:00.585Z,13.37
2018-09-28T07:09:30.827Z,9.57
2018-09-28T07:12:00.487Z,7.87
2018-09-28T07:14:30.055Z,9.30
2018-09-28T07:16:59.880Z,9.20
2018-09-28T07:19:29.795Z,8.23
2018-09-28T07:21:59.616Z,7.83
2018-09-28T07:24:29.973Z,7.27
2018-09-28T07:26:59.954Z,7.43
2018-09-28T07:29:30.219Z,7.73
2018-09-28T07:31:59.845Z,10.87
2018-09-28T07:34:30.154Z,9.47
2018-09-28T07:37:00.141Z,5.70
2018-09-28T07:39:30.063Z,7.47
2018-09-28T07:42:02.115Z,6.90
2018-09-28T07:44:31.898Z,6.77
2018-09-28T07:47:02.304Z,9.87
2018-09-28T07:49:31.928Z,9.43
2018-09-28T07:52:02.692Z,8.67
2018-09-28T07:54:35.389Z,10.73
2018-09-28T07:57:06.066Z,12.27
2018-09-28T07:59:35.845Z,14.07
2018-09-28T08:02:05.730Z,9.90
2018-09-28T08:04:35.714Z,9.13
2018-09-28T08:07:07.118Z,11.10
2018-09-28T08:09:36.970Z,12.53
2018-09-28T08:12:06.744Z,12.07
2018-09-28T08:14:41.326Z,12.87
2018-09-28T08:17:10.802Z,8.90
2018-09-28T08:19:43.925Z,10.30
2018-09-28T08:22:24.612Z,9.70
2018-09-28T08:24:54.561Z,8.33
2018-09-28T08:27:25.906Z,7.77
2018-09-28T08:29:55.704Z,10.53
2018-09-28T08:32:25.940Z,7.03
2018-09-28T08:34:56.270Z,12.33
2018-09-28T08:37:25.758Z,11.23
2018-09-28T08:39:55.297Z,6.97
2018-09-28T08:42:24.977Z,6.97
2018-09-28T08:44:54.990Z,8.40
2018-09-28T08:47:24.574Z,10.17
2018-09-28T08:49:54.145Z,8.60
2018-09-28T08:52:23.990Z,12.10
2018-09-28T08:54:53.573Z,9.10
2018-09-28T08:57:23.145Z,7.93
2018-09-28T08:59:53.123Z,7.90
2018-09-28T09:02:22.622Z,7.77
2018-09-28T09:04:52.005Z,5.80
2018-09-28T09:07:21.428Z,6.97
2018-09-28T09:09:52.257Z,5.53
2018-09-28T09:12:21.878Z,6.00
2018-09-28T09:14:51.280Z,9.27
2018-09-28T09:17:20.710Z,10.10
2018-09-28T09:19:50.218Z,9.80
2018-09-28T09:22:19.773Z,5.80
2018-09-28T09:24:50.868Z,9.90
2018-09-28T09:27:21.662Z,5.43
2018-09-28T09:29:53.061Z,6.97
2018-09-28T09:32:22.868Z,6.93
2018-09-28T09:34:52.756Z,8.20
2018-09-28T09:37:22.429Z,9.87
2018-09-28T09:39:52.199Z,6.97
2018-09-28T09:42:22.632Z,7.73
2018-09-28T09:44:52.316Z,6.40
2018-09-28T09:47:22.513Z,7.83
2018-09-28T09:49:53.276Z,7.87
2018-09-28T09:52:23.179Z,8.70
2018-09-28T09:54:52.754Z,8.13
2018-09-28T09:57:22.953Z,7.57
2018-09-28T09:59:53.294Z,6.33
2018-09-28T10:02:28.381Z,7.33
2018-09-28T10:04:58.222Z,6.97
2018-09-28T10:07:27.838Z,8.77
2018-09-28T10:09:57.661Z,6.60
2018-09-28T10:12:29.348Z,7.63
2018-09-28T10:14:59.437Z,8.37
2018-09-28T10:17:30.959Z,6.70
2018-09-28T10:20:00.971Z,8.53
2018-09-28T10:22:30.638Z,9.17
2018-09-28T10:25:00.779Z,8.70
2018-09-28T10:27:30.376Z,5.47
2018-09-28T10:29:59.891Z,6.90
2018-09-28T10:32:29.338Z,5.67
2018-09-28T10:35:03.487Z,10.37
2018-09-28T10:37:33.607Z,6.97
2018-09-28T10:40:03.023Z,8.53
2018-09-28T10:42:32.718Z,6.47
2018-09-28T10:45:02.135Z,9.73
2018-09-28T10:47:31.987Z,9.23
2018-09-28T10:50:01.379Z,6.80
2018-09-28T10:52:31.042Z,6.97
2018-09-28T10:55:00.413Z,6.30
2018-09-28T10:57:30.415Z,9.40
2018-09-28T11:00:00.051Z,5.13
2018-09-28T11:02:29.833Z,6.70
2018-09-28T11:04:59.872Z,19.50
2018-09-28T11:07:29.682Z,4.77
2018-09-28T11:09:59.234Z,4.03
2018-09-28T11:12:29.851Z,6.37
2018-09-28T11:15:08.341Z,5.57
2018-09-28T11:17:37.763Z,5.53
2018-09-28T11:20:07.652Z,7.03
2018-09-28T11:22:37.097Z,4.93
2018-09-28T11:25:06.535Z,6.17
2018-09-28T11:27:35.943Z,7.53
2018-09-28T11:30:05.824Z,7.33
2018-09-28T11:32:35.359Z,9.80
2018-09-28T11:35:04.868Z,4.53
2018-09-28T11:37:34.596Z,6.03
2018-09-28T11:40:10.998Z,6.27
2018-09-28T11:42:40.905Z,6.20
2018-09-28T11:45:10.436Z,5.17
2018-09-28T11:47:39.838Z,5.07
2018-09-28T11:50:10.575Z,8.87
2018-09-28T11:52:39.899Z,6.07
2018-09-28T11:55:09.352Z,5.27
2018-09-28T11:57:38.949Z,8.17
2018-09-28T12:00:08.687Z,3.87
2018-09-28T12:02:38.337Z,5.03
2018-09-28T12:05:11.369Z,6.87
2018-09-28T12:07:48.132Z,7.60
2018-09-28T12:10:19.231Z,5.33
2018-09-28T12:12:49.040Z,5.43
2018-09-28T12:15:20.693Z,10.27
2018-09-28T12:17:52.617Z,4.40
2018-09-28T12:20:22.184Z,5.37
2018-09-28T12:22:51.737Z,5.60
2018-09-28T12:25:21.219Z,3.30
2018-09-28T12:27:54.860Z,4.10
2018-09-28T12:30:24.284Z,4.47
2018-09-28T12:32:53.904Z,4.43
2018-09-28T12:35:23.772Z,3.80
2018-09-28T12:37:54.737Z,7.90
2018-09-28T12:40:24.215Z,5.13
2018-09-28T12:42:53.837Z,4.67
2018-09-28T12:45:23.954Z,9.67
2018-09-28T12:47:54.603Z,6.47
2018-09-28T12:50:25.431Z,6.80
2018-09-28T12:52:55.182Z,6.77
2018-09-28T12:55:24.898Z,4.50
2018-09-28T12:57:55.009Z,6.80
2018-09-28T13:00:29.809Z,3.80
2018-09-28T13:03:02.333Z,7.30
2018-09-28T13:05:34.576Z,5.90
2018-09-28T13:08:05.659Z,7.13
2018-09-28T13:10:36.305Z,6.17
2018-09-28T13:13:06.020Z,4.50
2018-09-28T13:15:36.399Z,4.60
2018-09-28T13:18:07.664Z,5.67
2018-09-28T13:20:37.773Z,9.93
2018-09-28T13:23:07.249Z,7.10
2018-09-28T13:25:40.352Z,4.27
2018-09-28T13:28:10.429Z,5.93
2018-09-28T13:30:41.361Z,7.70
2018-09-28T13:33:12.779Z,4.67
2018-09-28T13:35:42.426Z,3.53
2018-09-28T13:38:11.887Z,5.13
2018-09-28T13:40:41.720Z,5.23
2018-09-28T13:43:15.292Z,3.97
2018-09-28T13:45:49.557Z,4.93
2018-09-28T13:48:19.959Z,6.30
2018-09-28T13:50:55.099Z,5.00
2018-09-28T13:53:24.831Z,4.90
2018-09-28T13:55:57.674Z,6.60
2018-09-28T13:58:27.203Z,8.43
2018-09-28T14:00:59.133Z,6.40
2018-09-28T14:03:30.037Z,7.23
2018-09-28T14:06:02.718Z,5.87
2018-09-28T14:08:37.145Z,11.20
2018-09-28T14:11:06.663Z,7.30
2018-09-28T14:13:36.164Z,6.90
2018-09-28T14:16:05.956Z,8.53
2018-09-28T14:18:35.744Z,6.83
2018-09-28T14:21:05.306Z,6.30
2018-09-28T14:23:34.822Z,8.10
2018-09-28T14:26:06.893Z,6.62
2018-09-28T14:28:36.533Z,4.80
2018-09-28T14:31:06.251Z,7.20
2018-09-28T14:33:40.958Z,6.97
2018-09-28T14:36:16.780Z,14.87
2018-09-28T14:38:52.380Z,6.20
2018-09-28T14:41:23.175Z,5.47
2018-09-28T14:43:58.215Z,4.37
2018-09-28T14:46:28.205Z,4.97
2018-09-28T14:49:10.039Z,6.37
2018-09-28T14:51:44.119Z,5.87
2018-09-28T14:54:22.147Z,6.73
2018-09-28T14:57:53.267Z,7.03
2018-09-28T15:00:23.554Z,6.30
2018-09-28T15:02:53.071Z,5.67
2018-09-28T15:05:23.073Z,4.80
2018-09-28T15:10:52.356Z,5.97
2018-09-28T15:16:24.288Z,8.10
2018-09-28T15:18:57.403Z,13.63
2018-09-28T15:21:47.138Z,6.27
2018-09-28T15:24:24.788Z,6.47
2018-09-28T15:27:03.283Z,8.10
2018-09-28T15:29:37.048Z,6.77
2018-09-28T15:32:11.128Z,8.93
2018-09-28T15:37:27.879Z,5.83
2018-09-28T15:40:09.268Z,7.47
2018-09-28T15:42:39.833Z,8.33
2018-09-28T15:45:09.807Z,9.77
2018-09-28T15:47:43.641Z,6.73
2018-09-28T15:50:13.443Z,7.87
2018-09-28T15:52:43.545Z,7.07
2018-09-28T15:55:13.659Z,7.73
2018-09-28T15:57:43.457Z,6.30
2018-09-28T16:00:13.096Z,7.03
2018-09-28T16:02:43.338Z,5.73
2018-09-28T16:05:21.641Z,9.43
2018-09-28T16:08:01.402Z,7.63
2018-09-28T16:10:32.026Z,8.40
2018-09-28T16:13:01.907Z,9.63
2018-09-28T16:15:32.550Z,6.70
2018-09-28T16:18:03.006Z,8.40
2018-09-28T16:20:32.854Z,6.90
2018-09-28T16:23:08.240Z,8.37
2018-09-28T16:25:40.219Z,7.73
2018-09-28T16:28:11.887Z,8.27
2018-09-28T16:30:41.981Z,6.67
2018-09-28T16:33:11.766Z,9.00
2018-09-28T16:35:41.670Z,9.63
2018-09-28T16:38:11.387Z,6.80
2018-09-28T16:40:41.113Z,10.50
2018-09-28T16:43:10.968Z,9.10
2018-09-28T16:45:40.978Z,8.73
2018-09-28T16:48:10.704Z,5.87
2018-09-28T16:50:40.362Z,9.07
2018-09-28T16:53:10.108Z,7.87
2018-09-28T16:55:40.292Z,9.03
2018-09-28T16:58:10.580Z,6.10
2018-09-28T17:00:40.811Z,7.77
2018-09-28T17:03:11.129Z,10.33
2018-09-28T17:05:40.857Z,14.33
2018-09-28T17:08:10.682Z,10.57
2018-09-28T17:10:40.430Z,11.50
2018-09-28T17:13:14.072Z,11.50
2018-09-28T17:15:43.813Z,14.73
2018-09-28T17:18:14.244Z,13.47
2018-09-28T17:20:44.126Z,12.77
2018-09-28T17:23:14.361Z,15.67
2018-09-28T17:25:45.249Z,16.47
2018-09-28T17:28:17.762Z,15.37
2018-09-28T17:30:48.282Z,14.47
2018-09-28T17:33:18.294Z,14.33
2018-09-28T17:35:48.712Z,10.67
2018-09-28T17:38:33.006Z,12.80
2018-09-28T17:41:03.271Z,12.00
2018-09-28T17:43:33.912Z,9.87
2018-09-28T17:46:04.274Z,12.00
2018-09-28T17:48:33.898Z,9.13
2018-09-28T17:51:03.549Z,13.30
2018-09-28T17:56:27.889Z,7.20
2018-09-28T17:58:57.851Z,8.27
2018-09-28T18:01:27.786Z,7.37
2018-09-28T18:03:58.349Z,7.93
2018-09-28T18:06:45.700Z,7.47
2018-09-28T18:09:16.032Z,6.23
2018-09-28T18:11:49.042Z,7.50
2018-09-28T18:14:27.046Z,6.77
2018-09-28T18:16:58.917Z,7.70
2018-09-28T18:19:30.736Z,5.60
2018-09-28T18:22:42.697Z,5.27
2018-09-28T18:29:25.509Z,6.97
2018-09-28T18:32:13.669Z,5.23
2018-09-28T18:35:10.955Z,6.00
2018-09-28T18:38:13.934Z,5.60
2018-09-28T18:44:05.696Z,4.67
2018-09-28T18:47:09.210Z,4.77
2018-09-28T18:52:25.944Z,3.87
2018-09-28T18:55:04.827Z,4.80
2018-09-28T18:57:53.680Z,6.13
2018-09-28T19:00:43.199Z,5.00
2018-09-28T19:03:38.902Z,4.53
2018-09-28T19:06:22.971Z,6.17
2018-09-28T19:09:08.692Z,8.67
2018-09-28T19:11:48.976Z,4.37
2018-09-28T19:14:33.349Z,9.23
2018-09-28T19:20:05.993Z,7.77
2018-09-28T19:22:55.960Z,7.23
2018-09-28T19:25:33.374Z,8.70
2018-09-28T19:31:19.917Z,6.87
2018-09-28T19:34:07.058Z,6.80
2018-09-28T19:36:47.566Z,7.43
2018-09-28T19:40:07.122Z,6.83
2018-09-28T19:42:55.610Z,7.87
2018-09-28T19:48:31.147Z,8.30
2018-09-28T19:51:10.912Z,8.43
2018-09-28T19:54:19.872Z,7.93
2018-09-28T19:57:16.308Z,7.53
2018-09-28T19:59:58.282Z,9.20
2018-09-28T20:02:35.634Z,7.27
2018-09-28T20:05:23.155Z,7.40
2018-09-28T20:08:03.686Z,6.63
2018-09-28T20:14:29.023Z,7.93
2018-09-28T20:23:10.653Z,8.93
2018-09-28T20:29:09.187Z,7.90
2018-09-28T20:35:05.212Z,8.53
2018-09-28T20:37:44.528Z,9.63
2018-09-28T20:40:28.784Z,10.93
2018-09-28T20:43:11.410Z,11.10
2018-09-28T20:45:56.162Z,12.17
2018-09-28T20:48:54.822Z,14.27
2018-09-28T20:51:42.581Z,12.23
2018-09-28T20:54:26.691Z,15.87
2018-09-28T21:17:59.235Z,19.67
2018-09-28T21:20:51.639Z,20.20
2018-09-28T21:35:36.713Z,21.10
2018-09-28T21:41:41.832Z,16.50
2018-09-28T21:44:29.805Z,19.70
2018-09-28T21:47:06.971Z,17.43
2018-09-28T21:49:46.880Z,19.33
2018-09-28T21:52:30.914Z,19.27
2018-09-28T21:55:08.598Z,17.87
2018-09-28T21:57:44.410Z,18.13
2018-09-28T22:00:20.427Z,14.87
2018-09-28T22:03:06.465Z,17.33
2018-09-28T22:06:06.308Z,15.13
2018-09-28T22:11:47.388Z,11.47
2018-09-28T22:53:52.038Z,7.27
2018-09-28T22:56:29.603Z,7.93
2018-09-28T22:59:01.804Z,9.43
2018-09-28T23:01:33.603Z,12.93
2018-09-28T23:04:06.175Z,8.40
